Time;durP1;ratioP1;P1;durP2;ratioP2;P2;SDS_P1;SDS_P2;PMS_P1;PMS_P2;Temp;Humidity;BMP_temperature;BMP_pressure;BME280_temperature;BME280_humidity;BME280_pressure;Samples;Min_cycle;Max_cycle;Signal;HPM_P1;HPM_P2
2020/12/08 00:00:35;;;;;;;;;;;21.70;41.90;;;;;;1550512;76;1153;-56
2020/12/08 00:02:37;;;;;;;;;;;21.80;41.90;;;;;;1533754;75;677;-56
2020/12/08 00:04:39;;;;;;;;;;;21.80;41.90;;;;;;1550698;77;679;-56
2020/12/08 00:06:41;;;;;;;;;;;21.70;42.00;;;;;;1550550;75;711;-55
2020/12/08 00:08:43;;;;;;;;;;;21.80;41.90;;;;;;1550532;77;731;-54
2020/12/08 00:10:45;;;;;;;;;;;21.80;41.90;;;;;;1547835;76;1156;-53
2020/12/08 00:12:51;;;;;;;;;;;21.80;41.90;;;;;;1550725;77;772;-52
2020/12/08 00:14:53;;;;;;;;;;;21.80;41.80;;;;;;1550299;76;1931;-53
2020/12/08 00:16:55;;;;;;;;;;;21.80;41.80;;;;;;1550658;77;762;-54
2020/12/08 00:18:57;;;;;;;;;;;21.80;41.80;;;;;;1536419;77;763;-54
2020/12/08 00:20:59;;;;;;;;;;;21.80;41.90;;;;;;1535208;76;1156;-53
2020/12/08 00:23:01;;;;;;;;;;;21.80;41.80;;;;;;1544568;77;758;-53
2020/12/08 00:25:04;;;;;;;;;;;21.40;41.60;;;;;;1550680;77;734;-56
2020/12/08 00:27:07;;;;;;;;;;;21.80;41.80;;;;;;1550610;77;714;-58
2020/12/08 00:29:10;;;;;;;;;;;21.80;41.80;;;;;;1537033;76;1018;-53
2020/12/08 00:31:11;;;;;;;;;;;21.80;41.90;;;;;;1550551;76;1143;-55
2020/12/08 00:33:13;;;;;;;;;;;21.80;41.80;;;;;;1530711;77;735;-54
2020/12/08 00:35:15;;;;;;;;;;;21.80;41.80;;;;;;1571130;75;1930;-53
2020/12/08 00:37:17;;;;;;;;;;;21.80;41.80;;;;;;1530930;77;825;-55
2020/12/08 00:39:19;;;;;;;;;;;21.80;41.80;;;;;;1540634;77;791;-53
2020/12/08 00:41:21;;;;;;;;;;;21.80;42.10;;;;;;1524699;77;1155;-58
2020/12/08 00:43:23;;;;;;;;;;;21.80;42.00;;;;;;1544132;77;775;-57
2020/12/08 00:45:25;;;;;;;;;;;21.70;42.30;;;;;;1550638;76;1116;-57
2020/12/08 00:47:27;;;;;;;;;;;21.70;42.20;;;;;;1550499;77;778;-54
2020/12/08 00:49:29;;;;;;;;;;;21.70;42.30;;;;;;1535769;76;1147;-58
2020/12/08 00:51:31;;;;;;;;;;;21.70;42.30;;;;;;1550731;77;771;-57
2020/12/08 00:53:32;;;;;;;;;;;21.70;42.20;;;;;;1550764;77;768;-57
2020/12/08 00:55:34;;;;;;;;;;;21.80;42.10;;;;;;1546638;77;1935;-57
2020/12/08 00:57:36;;;;;;;;;;;21.80;42.10;;;;;;1546262;76;760;-55
2020/12/08 00:59:38;;;;;;;;;;;21.80;42.10;;;;;;1544284;75;1125;-55
2020/12/08 01:01:43;;;;;;;;;;;21.80;42.10;;;;;;1563360;75;737;-53
2020/12/08 01:03:45;;;;;;;;;;;21.80;42.10;;;;;;1531959;77;781;-57
2020/12/08 01:05:46;;;;;;;;;;;21.80;42.10;;;;;;1547774;77;669;-57
2020/12/08 01:07:49;;;;;;;;;;;21.80;42.10;;;;;;1540364;77;980;-57
2020/12/08 01:09:51;;;;;;;;;;;21.70;42.00;;;;;;1550673;76;1135;-56
2020/12/08 01:11:53;;;;;;;;;;;21.80;42.00;;;;;;1550898;77;757;-58
2020/12/08 01:13:55;;;;;;;;;;;21.80;41.90;;;;;;1550692;77;742;-58
2020/12/08 01:15:56;;;;;;;;;;;21.80;42.00;;;;;;1547859;77;1942;-52
2020/12/08 01:17:58;;;;;;;;;;;21.80;42.00;;;;;;1567184;75;820;-55
2020/12/08 01:20:00;;;;;;;;;;;21.80;41.90;;;;;;1549056;75;1181;-53
2020/12/08 01:22:02;;;;;;;;;;;21.80;41.90;;;;;;1531756;77;760;-57
2020/12/08 01:24:04;;;;;;;;;;;21.70;41.90;;;;;;1550762;77;730;-57
2020/12/08 01:26:06;;;;;;;;;;;21.80;42.00;;;;;;1543311;77;707;-57
2020/12/08 01:28:08;;;;;;;;;;;21.80;41.90;;;;;;1544402;77;767;-58
2020/12/08 01:30:09;;;;;;;;;;;21.80;41.90;;;;;;1528550;77;1167;-56
2020/12/08 01:32:11;;;;;;;;;;;21.80;42.10;;;;;;1550675;77;711;-58
2020/12/08 01:34:13;;;;;;;;;;;21.80;42.20;;;;;;1550699;77;706;-57
2020/12/08 01:36:17;;;;;;;;;;;21.80;42.20;;;;;;1546667;77;1933;-57
2020/12/08 01:38:19;;;;;;;;;;;21.70;42.20;;;;;;1550472;77;718;-57
2020/12/08 01:40:21;;;;;;;;;;;21.70;42.30;;;;;;1528583;77;1124;-55
2020/12/08 01:42:23;;;;;;;;;;;21.70;42.30;;;;;;1550684;77;766;-54
2020/12/08 01:44:25;;;;;;;;;;;21.70;42.40;;;;;;1550631;75;808;-55
2020/12/08 01:46:27;;;;;;;;;;;21.70;42.30;;;;;;1543622;77;726;-54
2020/12/08 01:48:29;;;;;;;;;;;21.70;42.20;;;;;;1549333;77;703;-53
2020/12/08 01:50:31;;;;;;;;;;;21.80;42.10;;;;;;1550576;77;1246;-52
2020/12/08 01:52:33;;;;;;;;;;;21.80;42.10;;;;;;1550336;75;785;-53
2020/12/08 01:54:35;;;;;;;;;;;21.80;42.10;;;;;;1548128;75;1925;-56
2020/12/08 01:56:38;;;;;;;;;;;21.80;42.10;;;;;;1547793;75;656;-52
2020/12/08 01:58:39;;;;;;;;;;;21.70;42.10;;;;;;1550342;75;1041;-52
2020/12/08 02:00:41;;;;;;;;;;;21.80;42.10;;;;;;1550521;75;1156;-54
2020/12/08 02:02:44;;;;;;;;;;;21.80;42.10;;;;;;1548114;75;694;-53
2020/12/08 02:04:46;;;;;;;;;;;21.80;42.00;;;;;;1550406;75;755;-56
2020/12/08 02:06:48;;;;;;;;;;;21.80;42.10;;;;;;1554605;75;636;-57
2020/12/08 02:08:50;;;;;;;;;;;21.80;42.10;;;;;;1550088;75;659;-55
2020/12/08 02:10:51;;;;;;;;;;;21.80;42.10;;;;;;1546468;75;1115;-54
2020/12/08 02:12:53;;;;;;;;;;;21.80;42.00;;;;;;1547383;75;661;-53
2020/12/08 02:14:55;;;;;;;;;;;21.80;42.00;;;;;;1550367;75;1959;-57
2020/12/08 02:16:57;;;;;;;;;;;21.80;42.00;;;;;;1550368;75;715;-53
2020/12/08 02:18:59;;;;;;;;;;;21.80;42.10;;;;;;1550144;75;767;-56
2020/12/08 02:21:01;;;;;;;;;;;21.80;42.00;;;;;;1550258;75;1157;-55
2020/12/08 02:23:03;;;;;;;;;;;21.80;42.00;;;;;;1547526;75;770;-56
2020/12/08 02:25:05;;;;;;;;;;;21.80;42.00;;;;;;1550392;75;695;-56
2020/12/08 02:27:07;;;;;;;;;;;21.80;42.00;;;;;;1550561;75;659;-54
2020/12/08 02:29:09;;;;;;;;;;;21.80;42.10;;;;;;1550237;75;719;-57
2020/12/08 02:31:11;;;;;;;;;;;21.80;42.00;;;;;;1549236;75;1157;-58
2020/12/08 02:33:13;;;;;;;;;;;21.80;42.00;;;;;;1554763;75;733;-55
2020/12/08 02:35:15;;;;;;;;;;;21.80;42.00;;;;;;1550485;75;1951;-56
2020/12/08 02:37:17;;;;;;;;;;;21.70;42.00;;;;;;1548367;75;692;-55
2020/12/08 02:39:19;;;;;;;;;;;21.70;42.10;;;;;;1550093;75;798;-55
2020/12/08 02:41:22;;;;;;;;;;;21.80;42.10;;;;;;1550115;76;1020;-53
2020/12/08 02:43:24;;;;;;;;;;;21.80;42.10;;;;;;1550156;76;1743;-53
2020/12/08 02:45:26;;;;;;;;;;;21.80;42.20;;;;;;1544904;75;775;-57
2020/12/08 02:47:28;;;;;;;;;;;21.70;42.50;;;;;;1550383;77;754;-57
2020/12/08 02:49:29;;;;;;;;;;;21.60;42.60;;;;;;1550378;75;1194;-56
2020/12/08 02:51:31;;;;;;;;;;;21.50;42.70;;;;;;1542621;75;681;-55
2020/12/08 02:53:33;;;;;;;;;;;21.50;42.70;;;;;;1550627;77;774;-58
2020/12/08 02:55:35;;;;;;;;;;;21.50;42.90;;;;;;1550402;77;1929;-56
2020/12/08 02:57:37;;;;;;;;;;;21.50;43.00;;;;;;1550372;76;780;-57
2020/12/08 02:59:39;;;;;;;;;;;21.50;42.90;;;;;;1544032;76;1131;-55
2020/12/08 03:01:41;;;;;;;;;;;21.50;42.90;;;;;;1550745;77;771;-54
2020/12/08 03:03:42;;;;;;;;;;;21.50;42.80;;;;;;1550562;77;791;-53
2020/12/08 03:05:44;;;;;;;;;;;21.50;42.80;;;;;;1550576;77;852;-52
2020/12/08 03:07:46;;;;;;;;;;;21.50;42.70;;;;;;1549886;77;685;-57
2020/12/08 03:09:48;;;;;;;;;;;21.60;42.60;;;;;;1536692;77;1166;-55
2020/12/08 03:11:50;;;;;;;;;;;21.50;42.80;;;;;;1550509;77;754;-56
2020/12/08 03:13:52;;;;;;;;;;;21.50;42.90;;;;;;1550562;77;748;-58
2020/12/08 03:15:54;;;;;;;;;;;21.50;42.90;;;;;;1550337;77;1925;-58
2020/12/08 03:17:56;;;;;;;;;;;21.50;42.80;;;;;;1541320;77;768;-56
2020/12/08 03:19:58;;;;;;;;;;;21.50;42.80;;;;;;1549010;76;1157;-57
2020/12/08 03:22:00;;;;;;;;;;;21.50;42.80;;;;;;1550735;77;742;-55
2020/12/08 03:24:02;;;;;;;;;;;21.50;42.90;;;;;;1550704;77;702;-56
2020/12/08 03:26:04;;;;;;;;;;;21.40;42.80;;;;;;1549397;77;757;-56
2020/12/08 03:28:06;;;;;;;;;;;21.40;42.80;;;;;;1532681;77;799;-55
2020/12/08 03:30:07;;;;;;;;;;;21.30;42.90;;;;;;1548293;76;1174;-55
2020/12/08 03:32:09;;;;;;;;;;;21.40;43.00;;;;;;1550639;77;768;-53
2020/12/08 03:34:11;;;;;;;;;;;21.30;43.10;;;;;;1550700;77;767;-53
2020/12/08 03:36:15;;;;;;;;;;;21.30;43.10;;;;;;1550600;77;1935;-53
2020/12/08 03:38:17;;;;;;;;;;;21.50;43.30;;;;;;1535574;76;1099;-55
2020/12/08 03:40:18;;;;;;;;;;;21.30;43.10;;;;;;1548100;76;1153;-51
2020/12/08 03:42:21;;;;;;;;;;;21.30;43.10;;;;;;1550736;77;695;-56
2020/12/08 03:44:22;;;;;;;;;;;21.30;43.10;;;;;;1550608;77;778;-57
2020/12/08 03:46:25;;;;;;;;;;;21.30;43.10;;;;;;1545986;76;753;-56
2020/12/08 03:48:27;;;;;;;;;;;21.30;43.00;;;;;;1543320;77;701;-56
2020/12/08 03:50:29;;;;;;;;;;;21.40;42.90;;;;;;1550551;76;1118;-58
2020/12/08 03:52:31;;;;;;;;;;;21.40;42.80;;;;;;1550811;77;739;-55
2020/12/08 03:54:33;;;;;;;;;;;21.40;42.80;;;;;;1548928;75;696;-54
2020/12/08 03:56:34;;;;;;;;;;;21.40;42.70;;;;;;1543105;75;1939;-56
2020/12/08 03:58:36;;;;;;;;;;;21.50;42.90;;;;;;1536235;75;712;-54
2020/12/08 04:00:38;;;;;;;;;;;21.40;42.80;;;;;;1531195;75;1148;-54
2020/12/08 04:02:40;;;;;;;;;;;21.40;42.70;;;;;;1537865;77;653;-55
2020/12/08 04:04:42;;;;;;;;;;;21.40;42.70;;;;;;1544256;75;807;-53
2020/12/08 04:06:44;;;;;;;;;;;21.40;42.70;;;;;;1545252;76;740;-54
2020/12/08 04:08:46;;;;;;;;;;;21.50;42.80;;;;;;1549983;77;786;-52
2020/12/08 04:10:48;;;;;;;;;;;21.40;42.60;;;;;;1539324;77;1163;-55
2020/12/08 04:12:50;;;;;;;;;;;21.40;42.60;;;;;;1547172;76;728;-54
2020/12/08 04:14:52;;;;;;;;;;;21.40;42.70;;;;;;1532223;77;795;-52
2020/12/08 04:16:54;;;;;;;;;;;21.40;42.70;;;;;;1524423;77;1941;-56
2020/12/08 04:18:56;;;;;;;;;;;21.30;42.80;;;;;;1529100;76;703;-54
2020/12/08 04:20:58;;;;;;;;;;;21.40;43.30;;;;;;1550615;76;1125;-57
2020/12/08 04:23:00;;;;;;;;;;;21.40;42.90;;;;;;1550620;77;711;-56
2020/12/08 04:25:02;;;;;;;;;;;21.30;43.00;;;;;;1549845;77;731;-54
2020/12/08 04:27:04;;;;;;;;;;;21.30;42.90;;;;;;1549659;76;717;-53
2020/12/08 04:29:05;;;;;;;;;;;21.30;43.00;;;;;;1524417;76;765;-55
2020/12/08 04:31:09;;;;;;;;;;;21.30;43.00;;;;;;1524196;76;1207;-57
2020/12/08 04:33:13;;;;;;;;;;;21.30;43.10;;;;;;1523713;77;1842;-53
2020/12/08 04:35:14;;;;;;;;;;;21.30;43.20;;;;;;1532541;77;1409;-52
2020/12/08 04:37:16;;;;;;;;;;;21.20;43.00;;;;;;1543392;75;1941;-55
2020/12/08 04:39:18;;;;;;;;;;;21.30;43.00;;;;;;1550498;77;689;-56
2020/12/08 04:41:21;;;;;;;;;;;21.20;43.00;;;;;;1534085;76;1079;-56
2020/12/08 04:43:23;;;;;;;;;;;21.30;43.10;;;;;;1549612;76;751;-54
2020/12/08 04:45:25;;;;;;;;;;;21.20;43.10;;;;;;1550529;77;752;-53
2020/12/08 04:47:26;;;;;;;;;;;21.30;43.30;;;;;;1550303;76;780;-56
2020/12/08 04:49:28;;;;;;;;;;;21.30;43.20;;;;;;1527996;77;1162;-56
2020/12/08 04:51:30;;;;;;;;;;;21.30;43.30;;;;;;1550518;77;677;-58
2020/12/08 04:53:32;;;;;;;;;;;21.30;43.20;;;;;;1539113;77;693;-58
2020/12/08 04:55:34;;;;;;;;;;;21.20;43.20;;;;;;1550611;77;767;-59
2020/12/08 04:57:36;;;;;;;;;;;21.20;43.30;;;;;;1550414;77;1908;-57
2020/12/08 04:59:38;;;;;;;;;;;21.20;43.30;;;;;;1531204;76;1150;-58
2020/12/08 05:01:41;;;;;;;;;;;21.20;43.60;;;;;;1526365;77;770;-56
2020/12/08 05:03:43;;;;;;;;;;;21.20;43.50;;;;;;1526292;76;729;-54
2020/12/08 05:05:45;;;;;;;;;;;21.30;43.40;;;;;;1533797;76;656;-56
2020/12/08 05:07:47;;;;;;;;;;;21.40;43.30;;;;;;1530174;77;708;-56
2020/12/08 05:09:49;;;;;;;;;;;21.30;43.20;;;;;;1548013;77;1138;-56
2020/12/08 05:11:52;;;;;;;;;;;21.40;43.30;;;;;;1542075;77;712;-56
2020/12/08 05:14:05;;;;;;;;;;;21.40;43.30;;;;;;1550732;76;1073;-57
2020/12/08 05:16:07;;;;;;;;;;;21.40;43.30;;;;;;1549905;76;1927;-56
2020/12/08 05:18:10;;;;;;;;;;;21.30;43.60;;;;;;1550411;77;767;-56
2020/12/08 05:20:12;;;;;;;;;;;21.30;43.40;;;;;;1548090;75;1115;-52
2020/12/08 05:22:14;;;;;;;;;;;21.50;43.60;;;;;;1550554;77;793;-56
2020/12/08 05:24:29;;;;;;;;;;;21.30;43.50;;;;;;1550559;77;677;-57
2020/12/08 05:26:31;;;;;;;;;;;21.30;43.60;;;;;;1550554;77;667;-58
2020/12/08 05:28:32;;;;;;;;;;;21.30;43.60;;;;;;1550434;77;689;-56
2020/12/08 05:30:36;;;;;;;;;;;21.30;43.60;;;;;;1538554;77;1160;-58
2020/12/08 05:32:38;;;;;;;;;;;21.30;43.60;;;;;;1544549;76;1024;-53
2020/12/08 05:34:40;;;;;;;;;;;21.30;43.60;;;;;;1550683;77;739;-56
2020/12/08 05:36:42;;;;;;;;;;;21.30;43.50;;;;;;1550627;77;1931;-54
2020/12/08 05:38:44;;;;;;;;;;;21.30;43.70;;;;;;1549511;77;735;-53
2020/12/08 05:40:46;;;;;;;;;;;21.30;43.50;;;;;;1559446;76;1215;-59
2020/12/08 05:42:48;;;;;;;;;;;21.30;43.50;;;;;;1598388;73;712;-56
2020/12/08 05:44:51;;;;;;;;;;;21.20;43.50;;;;;;1598375;73;762;-54
2020/12/08 05:46:53;;;;;;;;;;;21.20;43.50;;;;;;1583863;73;754;-56
2020/12/08 05:48:57;;;;;;;;;;;21.20;43.50;;;;;;1589764;73;690;-57
2020/12/08 05:51:02;;;;;;;;;;;21.20;43.50;;;;;;1598207;74;1759;-53
2020/12/08 05:53:04;;;;;;;;;;;21.20;43.50;;;;;;1598359;73;720;-56
2020/12/08 05:55:06;;;;;;;;;;;21.30;43.50;;;;;;1598449;73;784;-57
2020/12/08 05:57:15;;;;;;;;;;;21.30;43.50;;;;;;1598255;73;1909;-59
2020/12/08 05:59:27;;;;;;;;;;;21.30;43.50;;;;;;1597968;73;920;-56
2020/12/08 06:01:29;;;;;;;;;;;21.30;43.40;;;;;;1580592;73;699;-54
2020/12/08 06:03:31;;;;;;;;;;;21.20;43.30;;;;;;1598301;73;721;-53
2020/12/08 06:05:33;;;;;;;;;;;21.20;43.40;;;;;;1588087;73;768;-56
2020/12/08 06:07:35;;;;;;;;;;;21.20;43.40;;;;;;1577089;73;667;-59
2020/12/08 06:09:37;;;;;;;;;;;21.20;43.40;;;;;;1598293;73;1148;-56
2020/12/08 06:11:40;;;;;;;;;;;21.20;43.40;;;;;;1598161;73;712;-56
2020/12/08 06:13:48;;;;;;;;;;;21.20;43.50;;;;;;1598326;73;724;-54
2020/12/08 06:15:50;;;;;;;;;;;21.30;43.60;;;;;;1593950;73;787;-56
2020/12/08 06:17:52;;;;;;;;;;;21.20;43.40;;;;;;1591670;74;1950;-56
2020/12/08 06:19:54;;;;;;;;;;;21.20;43.50;;;;;;1598185;73;1222;-52
2020/12/08 06:21:56;;;;;;;;;;;21.20;43.50;;;;;;1598286;73;820;-55
2020/12/08 06:23:59;;;;;;;;;;;21.20;43.60;;;;;;1592725;73;677;-56
2020/12/08 06:26:01;;;;;;;;;;;21.10;43.60;;;;;;1584938;74;710;-54
2020/12/08 06:28:04;;;;;;;;;;;21.10;43.70;;;;;;1598017;73;789;-55
2020/12/08 06:30:05;;;;;;;;;;;21.20;43.60;;;;;;1598262;73;1195;-55
2020/12/08 06:32:07;;;;;;;;;;;21.20;43.60;;;;;;1598225;73;777;-54
2020/12/08 06:34:09;;;;;;;;;;;21.20;43.60;;;;;;1593669;73;698;-54
2020/12/08 06:36:11;;;;;;;;;;;21.10;43.70;;;;;;1592631;73;767;-52
2020/12/08 06:38:13;;;;;;;;;;;21.30;43.60;;;;;;1586651;73;1956;-56
2020/12/08 06:40:16;;;;;;;;;;;21.40;43.40;;;;;;1593381;73;1132;-55
2020/12/08 06:42:17;;;;;;;;;;;21.40;43.10;;;;;;1598331;73;1135;-55
2020/12/08 06:44:21;;;;;;;;;;;21.50;43.00;;;;;;1581059;73;761;-54
2020/12/08 06:46:23;;;;;;;;;;;21.40;42.60;;;;;;1584215;73;670;-54
2020/12/08 06:48:25;;;;;;;;;;;21.40;42.60;;;;;;1598150;73;813;-56
2020/12/08 06:50:28;;;;;;;;;;;21.50;42.00;;;;;;1598312;73;1198;-55
2020/12/08 06:52:30;;;;;;;;;;;21.30;42.60;;;;;;1598023;73;905;-55
2020/12/08 06:54:32;;;;;;;;;;;21.30;42.50;;;;;;1590170;73;671;-54
2020/12/08 06:56:34;;;;;;;;;;;21.30;42.40;;;;;;1598394;73;1952;-54
2020/12/08 06:58:38;;;;;;;;;;;21.30;42.10;;;;;;1598214;73;673;-53
2020/12/08 07:00:41;;;;;;;;;;;21.30;42.20;;;;;;1597937;73;1137;-56
2020/12/08 07:02:50;;;;;;;;;;;21.30;42.80;;;;;;1580949;73;724;-55
2020/12/08 07:04:52;;;;;;;;;;;21.20;42.60;;;;;;1594605;73;685;-53
2020/12/08 07:06:54;;;;;;;;;;;21.20;42.60;;;;;;1583790;73;706;-56
2020/12/08 07:08:56;;;;;;;;;;;21.20;42.60;;;;;;1573084;73;752;-56
2020/12/08 07:10:57;;;;;;;;;;;21.20;41.90;;;;;;1577103;73;1097;-56
2020/12/08 07:12:59;;;;;;;;;;;21.20;42.30;;;;;;1585452;73;680;-55
2020/12/08 07:15:01;;;;;;;;;;;21.30;42.30;;;;;;1572071;73;774;-54
2020/12/08 07:17:03;;;;;;;;;;;21.30;42.10;;;;;;1587995;73;1940;-55
2020/12/08 07:19:06;;;;;;;;;;;21.30;42.20;;;;;;1598155;73;743;-56
2020/12/08 07:21:08;;;;;;;;;;;21.30;42.00;;;;;;1591583;73;1145;-53
2020/12/08 07:23:10;;;;;;;;;;;21.30;42.10;;;;;;1567907;74;1269;-55
2020/12/08 07:25:16;;;;;;;;;;;21.30;42.10;;;;;;1539990;77;781;-53
2020/12/08 07:27:18;;;;;;;;;;;21.30;42.00;;;;;;1570775;76;643;-52
2020/12/08 07:29:20;;;;;;;;;;;21.30;41.90;;;;;;1563093;76;759;-54
2020/12/08 07:31:23;;;;;;;;;;;21.40;41.60;;;;;;1569924;75;1153;-56
2020/12/08 07:33:26;;;;;;;;;;;21.40;41.60;;;;;;1552830;74;685;-55
2020/12/08 07:35:29;;;;;;;;;;;21.30;40.00;;;;;;1532948;76;2054;-56
2020/12/08 07:37:38;;;;;;;;;;;21.30;38.30;;;;;;1567660;74;1932;-58
2020/12/08 07:39:39;;;;;;;;;;;21.30;36.90;;;;;;1564096;74;1134;-56
2020/12/08 07:41:41;;;;;;;;;;;21.30;36.40;;;;;;1567752;74;739;-58
2020/12/08 07:43:43;;;;;;;;;;;21.20;35.70;;;;;;1567845;74;883;-58
2020/12/08 07:45:45;;;;;;;;;;;21.10;35.40;;;;;;1567825;74;726;-57
2020/12/08 07:47:53;;;;;;;;;;;21.10;35.40;;;;;;1567814;75;777;-57
2020/12/08 07:49:55;;;;;;;;;;;21.10;35.00;;;;;;1559421;75;1176;-55
2020/12/08 07:51:57;;;;;;;;;;;21.10;34.40;;;;;;1567973;76;710;-54
2020/12/08 07:54:04;;;;;;;;;;;21.00;33.50;;;;;;1568035;76;769;-54
2020/12/08 07:56:03;;;;;;;;;;;20.90;33.20;;;;;;1567515;75;1516;-56
2020/12/08 07:58:05;;;;;;;;;;;20.80;32.90;;;;;;1567774;76;1911;-54
2020/12/08 08:00:07;;;;;;;;;;;20.80;33.30;;;;;;1567484;74;1113;-57
2020/12/08 08:02:09;;;;;;;;;;;20.80;33.60;;;;;;1567736;74;718;-54
2020/12/08 08:04:11;;;;;;;;;;;20.70;33.90;;;;;;1561401;74;716;-57
2020/12/08 08:06:14;;;;;;;;;;;20.70;33.40;;;;;;1545523;75;776;-56
2020/12/08 08:08:16;;;;;;;;;;;20.70;32.80;;;;;;1554716;75;1784;-56
2020/12/08 08:10:18;;;;;;;;;;;20.60;32.10;;;;;;1550055;75;1186;-56
2020/12/08 08:12:20;;;;;;;;;;;20.60;32.10;;;;;;1567962;75;685;-58
2020/12/08 08:14:22;;;;;;;;;;;20.50;32.20;;;;;;1567989;75;699;-56
2020/12/08 08:16:24;;;;;;;;;;;20.50;31.90;;;;;;1567941;75;703;-55
2020/12/08 08:18:25;;;;;;;;;;;20.40;31.40;;;;;;1567563;75;1932;-53
2020/12/08 08:20:27;;;;;;;;;;;20.40;31.90;;;;;;1549807;75;1112;-58
2020/12/08 08:22:29;;;;;;;;;;;20.30;32.30;;;;;;1567916;74;718;-58
2020/12/08 08:24:31;;;;;;;;;;;20.30;32.50;;;;;;1552894;75;768;-56
2020/12/08 08:26:33;;;;;;;;;;;20.30;32.30;;;;;;1545311;74;701;-56
2020/12/08 08:28:35;;;;;;;;;;;20.30;32.30;;;;;;1566008;74;727;-58
2020/12/08 08:30:37;;;;;;;;;;;20.30;31.90;;;;;;1567373;74;1134;-58
2020/12/08 08:32:39;;;;;;;;;;;20.30;31.80;;;;;;1554100;74;700;-56
2020/12/08 08:34:41;;;;;;;;;;;20.30;32.20;;;;;;1553617;75;663;-56
2020/12/08 08:36:52;;;;;;;;;;;20.20;32.30;;;;;;1544957;75;682;-56
2020/12/08 08:38:54;;;;;;;;;;;20.20;32.40;;;;;;1551988;74;1975;-54
2020/12/08 08:40:57;;;;;;;;;;;20.20;32.30;;;;;;1567483;74;1137;-58
2020/12/08 08:42:59;;;;;;;;;;;20.30;32.60;;;;;;1567626;74;757;-57
2020/12/08 08:45:01;;;;;;;;;;;20.20;32.60;;;;;;1558026;74;691;-56
2020/12/08 08:47:03;;;;;;;;;;;20.20;32.70;;;;;;1549409;75;766;-53
2020/12/08 08:49:05;;;;;;;;;;;20.20;32.70;;;;;;1559345;74;1011;-58
2020/12/08 08:51:07;;;;;;;;;;;20.20;32.60;;;;;;1567892;75;1193;-56
2020/12/08 08:53:09;;;;;;;;;;;20.20;32.40;;;;;;1559835;76;780;-56
2020/12/08 08:55:11;;;;;;;;;;;20.20;31.90;;;;;;1554330;76;744;-55
2020/12/08 08:57:13;;;;;;;;;;;20.20;31.90;;;;;;1555444;76;1910;-54
2020/12/08 08:59:15;;;;;;;;;;;20.20;31.80;;;;;;1558937;76;726;-54
2020/12/08 09:01:17;;;;;;;;;;;20.20;31.90;;;;;;1559800;75;1102;-54
2020/12/08 09:03:18;;;;;;;;;;;20.20;32.10;;;;;;1566602;74;761;-54
2020/12/08 09:05:20;;;;;;;;;;;20.10;32.10;;;;;;1551871;75;715;-53
2020/12/08 09:07:23;;;;;;;;;;;20.10;31.80;;;;;;1567615;76;773;-58
2020/12/08 09:09:25;;;;;;;;;;;20.20;31.80;;;;;;1567846;75;775;-55
2020/12/08 09:11:27;;;;;;;;;;;20.10;31.80;;;;;;1567851;75;718;-53
2020/12/08 09:13:29;;;;;;;;;;;20.10;31.80;;;;;;1560402;75;723;-55
2020/12/08 09:15:31;;;;;;;;;;;20.10;31.70;;;;;;1567964;75;780;-55
2020/12/08 09:17:33;;;;;;;;;;;20.10;31.80;;;;;;1567637;75;1934;-54
2020/12/08 09:19:35;;;;;;;;;;;20.10;31.70;;;;;;1567647;74;1110;-56
2020/12/08 09:21:36;;;;;;;;;;;20.10;31.60;;;;;;1567720;74;684;-56
2020/12/08 09:23:38;;;;;;;;;;;20.10;31.50;;;;;;1560937;75;594;-56
2020/12/08 09:25:40;;;;;;;;;;;20.10;31.40;;;;;;1562554;75;790;-56
2020/12/08 09:27:42;;;;;;;;;;;20.00;31.30;;;;;;1567715;75;794;-56
2020/12/08 09:29:44;;;;;;;;;;;20.10;31.00;;;;;;1557761;75;1136;-56
2020/12/08 09:31:46;;;;;;;;;;;20.00;30.50;;;;;;1554001;75;715;-55
2020/12/08 09:33:51;;;;;;;;;;;20.00;30.20;;;;;;1553688;75;1140;-55
2020/12/08 09:35:51;;;;;;;;;;;20.00;30.30;;;;;;1540350;76;1580;-53
2020/12/08 09:37:53;;;;;;;;;;;19.90;30.80;;;;;;1559086;74;1942;-57
2020/12/08 09:39:55;;;;;;;;;;;19.90;30.60;;;;;;1553212;76;1157;-58
2020/12/08 09:41:57;;;;;;;;;;;19.80;30.40;;;;;;1543403;76;791;-57
2020/12/08 09:43:59;;;;;;;;;;;19.80;30.10;;;;;;1553316;74;785;-56
2020/12/08 09:46:00;;;;;;;;;;;19.80;30.30;;;;;;1530421;76;783;-56
2020/12/08 09:48:02;;;;;;;;;;;19.70;30.40;;;;;;1542657;76;1093;-56
2020/12/08 09:50:05;;;;;;;;;;;19.70;30.40;;;;;;1541652;76;1138;-56
2020/12/08 09:52:07;;;;;;;;;;;19.70;30.80;;;;;;1536700;76;691;-56
2020/12/08 09:54:09;;;;;;;;;;;19.70;31.40;;;;;;1544552;76;744;-54
2020/12/08 09:56:11;;;;;;;;;;;19.70;32.30;;;;;;1538629;76;659;-54
2020/12/08 09:58:13;;;;;;;;;;;19.60;32.70;;;;;;1538585;76;1944;-55
2020/12/08 10:00:15;;;;;;;;;;;19.60;33.10;;;;;;1541539;76;1141;-57
2020/12/08 10:02:17;;;;;;;;;;;19.70;33.50;;;;;;1539592;76;851;-57
2020/12/08 10:04:19;;;;;;;;;;;19.70;33.90;;;;;;1541522;76;766;-56
2020/12/08 10:06:21;;;;;;;;;;;19.80;34.40;;;;;;1541349;76;788;-58
2020/12/08 10:08:23;;;;;;;;;;;19.80;34.30;;;;;;1541582;76;714;-55
2020/12/08 10:10:25;;;;;;;;;;;19.90;34.50;;;;;;1540155;76;1163;-55
2020/12/08 10:12:27;;;;;;;;;;;19.90;34.90;;;;;;1534953;76;712;-56
2020/12/08 10:14:28;;;;;;;;;;;19.90;34.90;;;;;;1541664;76;626;-53
2020/12/08 10:16:31;;;;;;;;;;;20.00;35.40;;;;;;1541661;76;669;-57
2020/12/08 10:18:33;;;;;;;;;;;20.00;35.00;;;;;;1539248;76;1928;-56
2020/12/08 10:20:36;;;;;;;;;;;20.10;35.10;;;;;;1539349;76;1142;-57
2020/12/08 10:22:39;;;;;;;;;;;20.20;35.40;;;;;;1568784;74;650;-53
2020/12/08 10:24:41;;;;;;;;;;;20.20;35.20;;;;;;1565500;74;736;-55
2020/12/08 10:26:43;;;;;;;;;;;20.20;35.70;;;;;;1565523;74;671;-55
2020/12/08 10:28:45;;;;;;;;;;;20.30;35.50;;;;;;1554981;75;815;-55
2020/12/08 10:30:48;;;;;;;;;;;20.30;36.00;;;;;;1549150;75;1104;-57
2020/12/08 10:32:50;;;;;;;;;;;20.40;36.30;;;;;;1558330;74;766;-54
2020/12/08 10:34:52;;;;;;;;;;;20.50;36.80;;;;;;1560778;74;634;-56
2020/12/08 10:36:54;;;;;;;;;;;20.60;37.00;;;;;;1562063;74;775;-54
2020/12/08 10:38:56;;;;;;;;;;;20.60;37.10;;;;;;1559866;74;1914;-56
2020/12/08 10:40:58;;;;;;;;;;;20.70;37.40;;;;;;1559956;74;1112;-56
2020/12/08 10:43:00;;;;;;;;;;;20.60;37.30;;;;;;1559426;75;850;-56
2020/12/08 10:45:02;;;;;;;;;;;20.70;37.50;;;;;;1558879;76;756;-56
2020/12/08 10:47:03;;;;;;;;;;;20.70;37.80;;;;;;1567936;75;778;-54
2020/12/08 10:49:05;;;;;;;;;;;20.80;37.70;;;;;;1563838;75;748;-55
2020/12/08 10:51:07;;;;;;;;;;;20.80;37.90;;;;;;1566507;75;1098;-56
2020/12/08 10:53:09;;;;;;;;;;;20.80;38.00;;;;;;1565711;75;778;-56
2020/12/08 10:55:11;;;;;;;;;;;20.90;38.20;;;;;;1564981;75;716;-54
2020/12/08 10:57:13;;;;;;;;;;;20.90;38.30;;;;;;1557769;75;725;-55
2020/12/08 10:59:15;;;;;;;;;;;20.90;38.30;;;;;;1556662;74;1933;-52
2020/12/08 11:01:26;;;;;;;;;;;20.90;38.30;;;;;;1565326;76;1043;-55
2020/12/08 11:03:28;;;;;;;;;;;20.90;38.40;;;;;;1553179;75;708;-57
2020/12/08 11:05:30;;;;;;;;;;;20.90;38.50;;;;;;1558436;75;688;-55
2020/12/08 11:07:32;;;;;;;;;;;20.90;38.60;;;;;;1546791;74;754;-55
2020/12/08 11:09:34;;;;;;;;;;;20.90;38.60;;;;;;1556544;74;1175;-53
2020/12/08 11:11:36;;;;;;;;;;;21.00;38.70;;;;;;1546858;74;809;-56
2020/12/08 11:13:37;;;;;;;;;;;20.90;38.80;;;;;;1564537;74;711;-57
2020/12/08 11:15:39;;;;;;;;;;;21.00;38.90;;;;;;1559782;75;731;-53
2020/12/08 11:17:41;;;;;;;;;;;21.00;38.90;;;;;;1557501;76;750;-54
2020/12/08 11:19:45;;;;;;;;;;;21.00;39.00;;;;;;1561098;75;1899;-53
2020/12/08 11:21:47;;;;;;;;;;;21.00;39.00;;;;;;1563110;75;862;-53
2020/12/08 11:23:49;;;;;;;;;;;21.00;39.10;;;;;;1556456;75;774;-55
2020/12/08 11:25:51;;;;;;;;;;;21.00;39.20;;;;;;1561044;74;743;-53
2020/12/08 11:27:52;;;;;;;;;;;21.00;39.10;;;;;;1563547;76;712;-55
2020/12/08 11:29:54;;;;;;;;;;;21.00;39.20;;;;;;1560937;75;1137;-55
2020/12/08 11:31:56;;;;;;;;;;;21.00;39.30;;;;;;1559424;76;706;-55
2020/12/08 11:33:58;;;;;;;;;;;21.00;39.30;;;;;;1563254;76;582;-54
2020/12/08 11:36:00;;;;;;;;;;;21.00;39.40;;;;;;1553458;76;721;-56
2020/12/08 11:38:02;;;;;;;;;;;21.00;39.40;;;;;;1553404;76;723;-56
2020/12/08 11:40:04;;;;;;;;;;;21.10;39.60;;;;;;1567872;75;1936;-54
2020/12/08 11:42:07;;;;;;;;;;;21.00;39.60;;;;;;1567925;76;725;-53
2020/12/08 11:44:11;;;;;;;;;;;21.00;39.70;;;;;;1567952;76;713;-55
2020/12/08 11:46:13;;;;;;;;;;;21.00;39.80;;;;;;1565645;74;2107;-55
2020/12/08 11:48:15;;;;;;;;;;;21.10;39.80;;;;;;1567833;76;784;-54
2020/12/08 11:50:17;;;;;;;;;;;21.00;39.80;;;;;;1567796;75;1136;-57
2020/12/08 11:52:19;;;;;;;;;;;21.00;39.90;;;;;;1567896;75;704;-55
2020/12/08 11:54:21;;;;;;;;;;;21.10;40.00;;;;;;1562995;76;763;-58
2020/12/08 11:56:23;;;;;;;;;;;21.00;40.00;;;;;;1567909;76;769;-55
2020/12/08 11:58:24;;;;;;;;;;;21.00;40.00;;;;;;1567738;76;1938;-56
2020/12/08 12:00:26;;;;;;;;;;;21.00;40.00;;;;;;1567952;75;1199;-55
2020/12/08 12:02:28;;;;;;;;;;;21.00;40.00;;;;;;1559305;76;782;-52
2020/12/08 12:04:30;;;;;;;;;;;21.00;40.10;;;;;;1568020;76;800;-58
2020/12/08 12:06:32;;;;;;;;;;;21.00;40.10;;;;;;1567930;75;772;-56
2020/12/08 12:08:34;;;;;;;;;;;21.00;40.20;;;;;;1567850;76;757;-56